Almirante Gago Coutinho — CTHA — position and weather

sailwx.info

Track history (hours):
 
Tides and Currents Weather Stations Pressure Air Temp Water Temp Dewpoint Dewpoint Depression Visibility Wind Speed Wind Dir Waves Ship Positions

Oceanographic research ship Almirante Gago Coutinho (Portugal)

Detailed information on ship capabilities available from University of Delaware's Ocean Information Center.

Last reported at 2018-Jun-22 18:30 UTC. Time now 2018-Jun-22 18:45 UTC.
Position N 38°60' W 029°55'.

Length 17 m; draft 5.9 m.

Type: Military. MMSI: 263145000.

Date/timePositionNaut miles runAvg speedWind from/ knotsBaromVisibWave heightAir tempDewpointWater temp
2018-Jun-22 18:30N 38°60' W 029°55'0 0.0
2018-Jun-22 18:00N 38°60' W 029°55'0 0.0
2018-Jun-22 17:30N 38°60' W 029°55'0 0.2
2018-Jun-22 17:00N 39°00' W 029°55'0 0.1
2018-Jun-22 16:30N 39°00' W 029°55'0 0.1
2018-Jun-22 16:00N 39°00' W 029°55'0 0.2
2018-Jun-22 15:31N 39°00' W 029°55'0 0.2
2018-Jun-22 15:00N 39°00' W 029°56'0 0.0
2018-Jun-22 14:30N 39°00' W 029°56'0 0.1
2018-Jun-22 14:01N 39°00' W 029°56'0 0.1
2018-Jun-22 13:30N 39°00' W 029°56'0 0.2
2018-Jun-22 13:00N 39°00' W 029°56'0 0.1
2018-Jun-22 12:31N 39°00' W 029°56'0 0.1
2018-Jun-22 12:00N 39°00' W 029°56'0 0.0
2018-Jun-22 11:30N 39°00' W 029°56'0 0.0
2018-Jun-22 11:00N 39°00' W 029°56'0 0.0
2018-Jun-22 10:30N 39°00' W 029°56'0 0.4
2018-Jun-22 10:00N 39°01' W 029°56'3 6.2
2018-Jun-22 09:30N 38°59' W 029°53'0 0.9
2018-Jun-22 09:00N 38°58' W 029°53'0 0.6
2018-Jun-22 08:30N 38°58' W 029°52'4 7.5
2018-Jun-22 08:00N 38°57' W 029°48'4 7.9
2018-Jun-22 07:30N 38°55' W 029°43'4 7.8
2018-Jun-22 07:00N 38°53' W 029°39'4 7.5
2018-Jun-22 06:30N 38°52' W 029°34'4 7.3
2018-Jun-22 06:00N 38°51' W 029°30'4 7.4
2018-Jun-22 05:30N 38°49' W 029°25'2 4.9
2018-Jun-22 05:00N 38°51' W 029°23'4 7.4
2018-Jun-22 04:30N 38°54' W 029°26'4 7.4
2018-Jun-22 04:00N 38°56' W 029°30'4 7.3
2018-Jun-22 03:30N 38°58' W 029°34'2 4.5
2018-Jun-22 03:00N 38°56' W 029°35'4 7.1
2018-Jun-22 02:31N 38°54' W 029°31'4 7.0
2018-Jun-22 02:00N 38°51' W 029°28'3 6.7
2018-Jun-22 01:30N 38°48' W 029°25'3 6.7
2018-Jun-22 01:01N 38°49' W 029°29'4 7.1
2018-Jun-22 00:30N 38°51' W 029°33'3 6.9
2018-Jun-22 00:00N 38°54' W 029°36'3 6.6
2018-Jun-21 23:30N 38°55' W 029°40'4 7.0
2018-Jun-21 23:00N 38°51' W 029°40'3 6.8
2018-Jun-21 22:30N 38°48' W 029°40'3 5.0
2018-Jun-21 22:00N 38°49' W 029°43'3 6.7
2018-Jun-21 21:30N 38°52' W 029°43'4 7.1
2018-Jun-21 21:00N 38°55' W 029°45'3 7.0
2018-Jun-21 20:30N 38°58' W 029°48'2 4.0
2018-Jun-21 20:00N 38°59' W 029°50'0 0.2
2018-Jun-21 19:30N 38°59' W 029°50'0 0.0
2018-Jun-21 19:00N 38°59' W 029°50'0 0.0
2018-Jun-21 18:30N 38°59' W 029°50'0 0.0
2018-Jun-21 18:00N 38°59' W 029°50'0 0.0
2018-Jun-21 17:30N 38°59' W 029°50'0 0.0
2018-Jun-21 17:00N 38°59' W 029°50'0 0.0
2018-Jun-21 16:30N 38°59' W 029°50'0 0.1
2018-Jun-21 16:00N 38°59' W 029°50'1 1.8
2018-Jun-21 15:31N 38°59' W 029°51'0 0.4
2018-Jun-21 15:00N 38°59' W 029°51'0 0.0
2018-Jun-21 14:30N 38°59' W 029°51'0 0.2
2018-Jun-21 14:00N 38°59' W 029°51'0 0.1
2018-Jun-21 13:30N 38°59' W 029°51'0 0.1
2018-Jun-21 13:00N 38°59' W 029°51'0 0.1
2018-Jun-21 12:30N 38°59' W 029°51'0 0.2
2018-Jun-21 12:00N 38°58' W 029°51'0 0.0
2018-Jun-21 11:30N 38°58' W 029°51'0 0.2
2018-Jun-21 11:00N 38°58' W 029°51'0 0.1
2018-Jun-21 10:30N 38°58' W 029°51'0 0.1
2018-Jun-21 10:00N 38°58' W 029°51'0 0.1
2018-Jun-21 09:30N 38°58' W 029°51'0 0.0
2018-Jun-21 09:00N 38°58' W 029°51'0 0.1
2018-Jun-21 08:30N 38°58' W 029°51'0 0.4
2018-Jun-21 08:00N 38°58' W 029°51'0 0.0
2018-Jun-21 07:30N 38°58' W 029°51'0 0.9
2018-Jun-21 07:00N 38°58' W 029°51'3 6.6
2018-Jun-21 06:30N 39°00' W 029°47'3 6.9
2018-Jun-21 06:00N 39°03' W 029°44'3 6.7
2018-Jun-21 05:30N 39°05' W 029°41'4 7.1
2018-Jun-21 05:00N 39°08' W 029°38'4 7.0
2018-Jun-21 04:30N 39°10' W 029°35'3 6.8
2018-Jun-21 04:00N 39°13' W 029°33'4 7.1
2018-Jun-21 03:30N 39°16' W 029°31'4 7.0
2018-Jun-21 03:00N 39°20' W 029°30'4 7.1
2018-Jun-21 02:30N 39°23' W 029°28'3 7.0
2018-Jun-21 02:00N 39°26' W 029°25'3 7.0
2018-Jun-21 01:30N 39°29' W 029°24'3 5.8
2018-Jun-21 01:00N 39°32' W 029°22'4 7.1
2018-Jun-21 00:30N 39°30' W 029°27'3 6.9
2018-Jun-21 00:00N 39°29' W 029°31'3 6.9
2018-Jun-20 23:30N 39°28' W 029°35'3 6.9
2018-Jun-20 23:00N 39°26' W 029°39'3 6.9
2018-Jun-20 22:30N 39°25' W 029°43'4 7.1
2018-Jun-20 22:01N 39°23' W 029°47'3 6.7
2018-Jun-20 21:30N 39°20' W 029°49'3 6.9
2018-Jun-20 21:00N 39°17' W 029°50'4 7.0
2018-Jun-20 20:30N 39°13' W 029°51'3 5.3
2018-Jun-20 20:00N 39°11' W 029°52'3 6.9
2018-Jun-20 19:30N 39°07' W 029°52'3 6.7
2018-Jun-20 19:00N 39°04' W 029°52'3 6.5
2018-Jun-20 18:30N 39°01' W 029°51'2 4.8
2018-Jun-20 18:00N 38°58' W 029°51'0 0.0
2018-Jun-20 17:30N 38°58' W 029°51'0 0.0
2018-Jun-20 17:01N 38°58' W 029°51'1 1.6
2018-Jun-20 16:30N 38°59' W 029°50'0 0.8
2018-Jun-20 16:01N 38°59' W 029°50'0 0.4
2018-Jun-20 15:30N 38°59' W 029°50'1 2.7
2018-Jun-20 15:00N 38°58' W 029°50'3 5.0
2018-Jun-20 14:30N 38°56' W 029°52'3 5.6
2018-Jun-20 14:00N 38°59' W 029°52'1 2.6
2018-Jun-20 13:30N 38°59' W 029°50'0 0.0
2018-Jun-20 13:00N 38°59' W 029°50'0 0.0
2018-Jun-20 12:30N 38°59' W 029°50'0 0.0
2018-Jun-20 12:00N 38°59' W 029°50'0 0.0
2018-Jun-20 11:31N 38°59' W 029°50'0 0.0
2018-Jun-20 11:00N 38°59' W 029°50'0 0.0
2018-Jun-20 10:30N 38°59' W 029°50'1 1.7
2018-Jun-20 10:01N 38°59' W 029°49'4 7.2
2018-Jun-20 09:30N 39°00' W 029°53'4 7.4
2018-Jun-20 09:00N 39°02' W 029°58'3 7.0
2018-Jun-20 08:31N 39°04' W 030°01'3 6.9
2018-Jun-20 08:00N 39°06' W 030°05'4 7.4
2018-Jun-20 07:30N 39°07' W 030°10'4 7.0
2018-Jun-20 07:00N 39°08' W 030°14'3 6.6
2018-Jun-20 06:30N 39°06' W 030°11'4 7.0
2018-Jun-20 06:00N 39°03' W 030°08'2 4.4
2018-Jun-20 05:30N 39°04' W 030°05'3 6.8
2018-Jun-20 05:00N 39°07' W 030°04'3 6.9
2018-Jun-20 04:30N 39°09' W 030°08'4 7.1
2018-Jun-20 04:00N 39°10' W 030°12'4 7.3
2018-Jun-20 03:30N 39°11' W 030°16'2 4.0
2018-Jun-20 03:00N 39°12' W 030°19'3 6.6
2018-Jun-20 02:30N 39°09' W 030°21'1 2.0
2018-Jun-20 01:57N 39°08' W 030°20'3 7.2
2018-Jun-20 01:30N 39°07' W 030°16'4 7.4
2018-Jun-20 01:00N 39°06' W 030°12'3 6.5
2018-Jun-20 00:30N 39°04' W 030°08'3 6.5
2018-Jun-20 00:00N 39°02' W 030°12'4 7.4
2018-Jun-19 23:30N 38°58' W 030°13'4 7.5
2018-Jun-19 23:00N 38°54' W 030°13'4 7.1
2018-Jun-19 22:30N 38°51' W 030°14'3 6.8
2018-Jun-19 22:00N 38°47' W 030°15'3 6.4
2018-Jun-19 21:30N 38°47' W 030°11'3 6.1
2018-Jun-19 21:00N 38°46' W 030°07'3 5.9
2018-Jun-19 20:30N 38°45' W 030°04'3 6.1
2018-Jun-19 20:00N 38°44' W 030°00'1 2.9
2018-Jun-19 19:30N 38°43' W 029°58'0 0.7
2018-Jun-19 19:00N 38°43' W 029°58'0 0.1
2018-Jun-19 18:30N 38°43' W 029°58'0 0.1
2018-Jun-19 18:00N 38°43' W 029°58'0 0.2
2018-Jun-19 17:30N 38°43' W 029°58'0 0.2
2018-Jun-19 17:00N 38°43' W 029°58'0 0.2
2018-Jun-19 16:30N 38°43' W 029°58'0 0.2
2018-Jun-19 16:00N 38°43' W 029°57'0 0.1
2018-Jun-19 15:30N 38°43' W 029°57'0 0.1
2018-Jun-19 15:00N 38°43' W 029°57'0 0.1
2018-Jun-19 14:30N 38°43' W 029°57'0 0.0
2018-Jun-19 14:00N 38°43' W 029°57'0 0.0
2018-Jun-19 13:30N 38°43' W 029°57'0 0.0
2018-Jun-19 13:00N 38°43' W 029°57'0 0.0
2018-Jun-19 12:30N 38°43' W 029°57'0 0.0
2018-Jun-19 12:00N 38°43' W 029°57'0 0.0
2018-Jun-19 11:30N 38°43' W 029°57'0 0.0
2018-Jun-19 11:00N 38°43' W 029°57'0 0.0
2018-Jun-19 10:30N 38°43' W 029°57'1 1.3
2018-Jun-19 10:00N 38°44' W 029°57'3 6.9
2018-Jun-19 09:30N 38°44' W 030°01'3 6.6
2018-Jun-19 09:00N 38°44' W 030°05'3 6.5
2018-Jun-19 08:30N 38°44' W 030°10'3 6.6
2018-Jun-19 08:00N 38°44' W 030°14'3 6.9
2018-Jun-19 07:30N 38°43' W 030°18'3 7.0
2018-Jun-19 07:00N 38°43' W 030°23'3 6.5
2018-Jun-19 06:30N 38°44' W 030°27'3 6.8
2018-Jun-19 06:00N 38°46' W 030°31'4 7.1
2018-Jun-19 05:28N 38°47' W 030°35'3 7.1
2018-Jun-19 05:00N 38°48' W 030°39'4 7.0
2018-Jun-19 04:27N 38°49' W 030°44'3 4.0
2018-Jun-19 03:36N 38°49' W 030°40'2 6.9
2018-Jun-19 03:17N 38°49' W 030°37'5 6.6
2018-Jun-19 02:35N 38°48' W 030°31'3 6.4
2018-Jun-19 02:08N 38°47' W 030°27'1 6.7
2018-Jun-19 02:00N 38°47' W 030°26'2 4.4
2018-Jun-19 01:30N 38°46' W 030°24'4 7.1
2018-Jun-19 01:00N 38°46' W 030°19'2 5.0
2018-Jun-19 00:30N 38°45' W 030°16'4 7.1
2018-Jun-19 00:00N 38°45' W 030°12'4 7.0
2018-Jun-18 23:30N 38°45' W 030°07'3 6.7
2018-Jun-18 23:00N 38°44' W 030°03'0 0.1
2018-Jun-18 22:30N 38°44' W 030°03'0 0.1
2018-Jun-18 22:00N 38°44' W 030°03'0 0.1
2018-Jun-18 21:30N 38°44' W 030°03'0 0.2
2018-Jun-18 21:00N 38°44' W 030°03'0 0.1
2018-Jun-18 20:30N 38°45' W 030°03'0 0.2
2018-Jun-18 20:00N 38°45' W 030°03'0 0.1
2018-Jun-18 19:31N 38°45' W 030°03'0 0.2
2018-Jun-18 19:00N 38°45' W 030°03'0 0.0
2018-Jun-18 18:30N 38°45' W 030°03'0 0.0
2018-Jun-18 18:01N 38°45' W 030°03'0 0.1
2018-Jun-18 17:30N 38°45' W 030°03'0 0.0
2018-Jun-18 17:00N 38°45' W 030°03'0 0.0
2018-Jun-18 16:30N 38°45' W 030°03'0 0.0
2018-Jun-18 16:00N 38°45' W 030°03'0 0.0
2018-Jun-18 15:30N 38°45' W 030°03'0 0.0
2018-Jun-18 15:00N 38°45' W 030°03'0 0.0
2018-Jun-18 14:30N 38°45' W 030°03'0 0.0
2018-Jun-18 14:00N 38°45' W 030°03'0 0.0
2018-Jun-18 13:30N 38°45' W 030°03'0 0.6
2018-Jun-18 13:00N 38°45' W 030°02'3 5.7
2018-Jun-18 12:30N 38°43' W 030°00'1 2.0
2018-Jun-18 12:00N 38°43' W 030°00'2 3.2
2018-Jun-18 11:30N 38°45' W 030°00'1 2.6
2018-Jun-18 11:01N 38°45' W 030°02'1 1.4
2018-Jun-18 10:30N 38°45' W 030°03'0 0.1
2018-Jun-18 10:00N 38°45' W 030°03'0 0.0
2018-Jun-18 09:31N 38°45' W 030°03'0 0.0
2018-Jun-18 09:00N 38°45' W 030°03'1 1.4
2018-Jun-18 08:30N 38°45' W 030°02'4 7.3
2018-Jun-18 08:01N 38°42' W 030°05'4 8.0
2018-Jun-18 07:30N 38°39' W 030°08'4 7.4
2018-Jun-18 07:00N 38°36' W 030°11'4 7.5
2018-Jun-18 06:31N 38°34' W 030°14'4 7.2
2018-Jun-18 06:00N 38°32' W 030°18'4 7.3
2018-Jun-18 05:30N 38°30' W 030°22'4 7.2
2018-Jun-18 05:01N 38°28' W 030°25'4 7.4
2018-Jun-18 04:30N 38°25' W 030°29'4 8.1
2018-Jun-18 04:00N 38°23' W 030°33'4 8.2
2018-Jun-18 03:30N 38°20' W 030°37'4 7.7
2018-Jun-18 03:00N 38°18' W 030°42'3 6.5
2018-Jun-18 02:30N 38°15' W 030°43'2 3.8
2018-Jun-18 02:00N 38°15' W 030°45'4 6.4
2018-Jun-18 01:27N 38°18' W 030°43'3 6.5
2018-Jun-18 00:59N 38°20' W 030°40'1 3.1
2018-Jun-18 00:30N 38°21' W 030°40'3 5.8
2018-Jun-17 23:56N 38°19' W 030°43'3 7.5
2018-Jun-17 23:30N 38°17' W 030°46'3 4.7
2018-Jun-17 22:50N 38°20' W 030°44'2 6.9
2018-Jun-17 22:28N 38°21' W 030°42'4 7.8
2018-Jun-17 21:53N 38°24' W 030°37'3 7.8
2018-Jun-17 21:30N 38°26' W 030°34'4 7.9
2018-Jun-17 21:01N 38°27' W 030°30'4 8.1
2018-Jun-17 20:30N 38°30' W 030°26'4 7.8
2018-Jun-17 20:00N 38°32' W 030°22'4 7.6
2018-Jun-17 19:31N 38°35' W 030°18'4 7.4
2018-Jun-17 19:00N 38°37' W 030°14'4 7.3
2018-Jun-17 18:30N 38°39' W 030°11'3 7.0
2018-Jun-17 18:01N 38°42' W 030°07'3 6.7
2018-Jun-17 17:31N 38°44' W 030°04'2 4.3
2018-Jun-17 17:00N 38°45' W 030°02'0 0.0
2018-Jun-17 16:30N 38°45' W 030°02'0 0.4
2018-Jun-17 16:00N 38°45' W 030°02'0 0.5
2018-Jun-17 15:31N 38°45' W 030°02'0 0.5
2018-Jun-17 15:00N 38°45' W 030°03'0 0.1
2018-Jun-17 14:30N 38°45' W 030°03'0 0.1
2018-Jun-17 14:01N 38°45' W 030°03'0 0.2
2018-Jun-17 13:30N 38°45' W 030°03'0 0.3
2018-Jun-17 13:00N 38°45' W 030°03'0 0.0
2018-Jun-17 12:30N 38°45' W 030°03'0 0.0
2018-Jun-17 12:00N 38°45' W 030°03'0 0.0
2018-Jun-17 11:30N 38°45' W 030°03'0 0.0
2018-Jun-17 11:00N 38°45' W 030°03'0 0.0
2018-Jun-17 10:30N 38°45' W 030°03'0 0.0
2018-Jun-17 10:00N 38°45' W 030°03'0 0.1
2018-Jun-17 09:30N 38°45' W 030°03'0 0.0
2018-Jun-17 09:00N 38°45' W 030°03'0 0.0
2018-Jun-17 08:30N 38°45' W 030°03'1 1.0
2018-Jun-17 08:00N 38°45' W 030°02'4 7.1
2018-Jun-17 07:31N 38°49' W 030°04'4 7.8
2018-Jun-17 07:00N 38°52' W 030°06'3 5.5
2018-Jun-17 06:30N 38°54' W 030°08'3 5.8
2018-Jun-17 06:00N 38°56' W 030°11'4 7.6
2018-Jun-17 05:30N 38°60' W 030°10'4 7.1
2018-Jun-17 05:00N 39°03' W 030°10'4 7.2
2018-Jun-17 04:30N 39°04' W 030°14'4 7.6
2018-Jun-17 04:00N 39°05' W 030°19'4 7.2
2018-Jun-17 03:30N 39°06' W 030°23'3 4.7
2018-Jun-17 02:49N 39°09' W 030°22'2 7.6
2018-Jun-17 02:30N 39°11' W 030°21'2 4.1
2018-Jun-17 02:00N 39°13' W 030°22'3 6.9
2018-Jun-17 01:30N 39°14' W 030°26'3 6.5
2018-Jun-17 01:01N 39°15' W 030°30'4 5.0
2018-Jun-17 00:10N 39°16' W 030°25'1 7.4
2018-Jun-16 23:59N 39°15' W 030°23'5 7.2
2018-Jun-16 23:21N 39°14' W 030°17'2 6.8
2018-Jun-16 23:00N 39°13' W 030°15'4 7.6
2018-Jun-16 22:30N 39°11' W 030°10'4 7.8
2018-Jun-16 22:01N 39°10' W 030°05'4 7.0
2018-Jun-16 21:30N 39°08' W 030°02'4 7.4
2018-Jun-16 21:00N 39°06' W 029°58'1 1.2
2018-Jun-16 20:30N 39°06' W 029°57'0 1.0
2018-Jun-16 20:00N 39°05' W 029°57'0 0.9
2018-Jun-16 19:30N 39°05' W 029°57'1 1.2
2018-Jun-16 19:00N 39°04' W 029°56'4 7.8
2018-Jun-16 18:30N 39°02' W 029°52'3 5.8
2018-Jun-16 18:00N 38°59' W 029°50'0 0.9
2018-Jun-16 17:30N 38°59' W 029°50'0 0.0
2018-Jun-16 17:00N 38°59' W 029°50'0 0.1
2018-Jun-16 16:30N 38°59' W 029°50'0 0.1
2018-Jun-16 16:00N 38°59' W 029°50'0 0.0
2018-Jun-16 15:31N 38°59' W 029°50'0 0.0
2018-Jun-16 15:01N 38°59' W 029°50'0 0.0
2018-Jun-16 14:30N 38°59' W 029°50'0 0.0
2018-Jun-16 14:00N 38°59' W 029°50'0 0.1
2018-Jun-16 13:30N 38°59' W 029°50'0 0.1
2018-Jun-16 13:01N 38°59' W 029°50'0 0.1
2018-Jun-16 12:30N 38°59' W 029°50'0 0.1
2018-Jun-16 12:00N 38°59' W 029°50'0 0.0
2018-Jun-16 11:30N 38°59' W 029°50'0 0.1
2018-Jun-16 11:00N 38°59' W 029°50'0 0.0
2018-Jun-16 10:30N 38°59' W 029°50'0 0.0
2018-Jun-16 10:00N 38°59' W 029°50'0 0.0
2018-Jun-16 09:30N 38°59' W 029°50'0 0.1
2018-Jun-16 09:00N 38°59' W 029°50'1 1.7
2018-Jun-16 08:30N 38°60' W 029°49'3 5.8
2018-Jun-16 08:00N 39°02' W 029°49'3 5.9
2018-Jun-16 07:30N 39°05' W 029°49'3 5.6
2018-Jun-16 07:00N 39°08' W 029°49'3 6.1
2018-Jun-16 06:31N 39°11' W 029°49'3 7.0
2018-Jun-16 06:01N 39°15' W 029°48'4 7.0
2018-Jun-16 05:30N 39°18' W 029°47'3 6.3
2018-Jun-16 05:00N 39°21' W 029°45'3 6.9
2018-Jun-16 04:30N 39°23' W 029°41'3 6.8
2018-Jun-16 04:01N 39°24' W 029°37'3 6.5
2018-Jun-16 03:30N 39°26' W 029°33'3 6.4
2018-Jun-16 03:00N 39°27' W 029°29'3 6.8
2018-Jun-16 02:30N 39°28' W 029°25'4 7.1
2018-Jun-16 02:00N 39°30' W 029°21'3 5.2
2018-Jun-16 01:30N 39°32' W 029°21'3 6.5
2018-Jun-16 01:00N 39°34' W 029°24'3 6.5
2018-Jun-16 00:30N 39°37' W 029°25'1 2.8
2018-Jun-16 00:00N 39°37' W 029°23'2 3.1
2018-Jun-15 23:31N 39°36' W 029°22'3 5.9
2018-Jun-15 23:00N 39°39' W 029°21'3 5.8
2018-Jun-15 22:30N 39°37' W 029°18'2 4.8
2018-Jun-15 22:01N 39°35' W 029°20'3 5.2
2018-Jun-15 21:30N 39°38' W 029°21'3 6.6
2018-Jun-15 21:00N 39°34' W 029°21'3 5.8
2018-Jun-15 20:30N 39°34' W 029°17'3 5.9
2018-Jun-15 20:01N 39°36' W 029°15'3 5.8
2018-Jun-15 19:30N 39°34' W 029°15'4 7.1
2018-Jun-15 19:00N 39°30' W 029°17'4 7.5
2018-Jun-15 18:31N 39°28' W 029°20'4 7.6
2018-Jun-15 18:00N 39°24' W 029°23'3 5.7
2018-Jun-15 17:30N 39°22' W 029°24'3 6.4
2018-Jun-15 17:01N 39°19' W 029°26'4 7.1
2018-Jun-15 16:30N 39°16' W 029°28'10 7.3
2018-Jun-15 15:08N 39°07' W 029°33'1 6.9
2018-Jun-15 15:00N 39°06' W 029°34'3 7.0
2018-Jun-15 14:31N 39°02' W 029°35'4 7.5
2018-Jun-15 14:00N 38°59' W 029°37'3 7.0
2018-Jun-15 13:30N 38°56' W 029°39'1 3.0
2018-Jun-15 13:01N 38°57' W 029°38'3 6.6
2018-Jun-15 12:30N 38°59' W 029°35'2 4.5
2018-Jun-15 12:00N 38°60' W 029°38'3 7.0
2018-Jun-15 11:31N 38°57' W 029°40'1 2.9
2018-Jun-15 11:00N 38°57' W 029°42'3 6.7
2018-Jun-15 10:30N 38°58' W 029°46'2 4.9
2018-Jun-15 10:01N 39°01' W 029°47'4 7.0
2018-Jun-15 09:30N 39°02' W 029°43'3 6.9
2018-Jun-15 09:00N 39°04' W 029°39'3 5.9
2018-Jun-15 08:31N 39°06' W 029°37'3 6.9
2018-Jun-15 08:00N 39°10' W 029°36'3 7.0
2018-Jun-15 07:30N 39°13' W 029°36'3 6.9
2018-Jun-15 07:00N 39°17' W 029°36'1 2.3
2018-Jun-15 06:30N 39°18' W 029°37'4 7.3
2018-Jun-15 06:00N 39°14' W 029°38'4 7.2
2018-Jun-15 05:31N 39°10' W 029°38'3 5.7
2018-Jun-15 05:00N 39°08' W 029°39'3 6.6
2018-Jun-15 04:30N 39°11' W 029°40'4 7.1
2018-Jun-15 04:00N 39°15' W 029°39'3 7.0
2018-Jun-15 03:30N 39°18' W 029°39'4 7.1
2018-Jun-15 03:00N 39°21' W 029°41'3 7.0
2018-Jun-15 02:30N 39°18' W 029°42'4 7.1
2018-Jun-15 02:00N 39°14' W 029°42'4 7.2
2018-Jun-15 01:30N 39°11' W 029°43'3 5.5
2018-Jun-15 01:00N 39°08' W 029°44'3 6.1
2018-Jun-15 00:30N 39°10' W 029°47'3 7.0
2018-Jun-15 00:00N 39°14' W 029°46'4 7.3
2018-Jun-14 23:30N 39°17' W 029°45'3 6.9
2018-Jun-14 23:01N 39°20' W 029°44'3 5.9
2018-Jun-14 22:30N 39°17' W 029°43'3 6.8
2018-Jun-14 22:00N 39°14' W 029°44'3 6.6
2018-Jun-14 21:30N 39°11' W 029°44'3 5.8
2018-Jun-14 21:00N 39°08' W 029°45'3 7.0
2018-Jun-14 20:30N 39°07' W 029°41'3 6.0
2018-Jun-14 20:00N 39°04' W 029°40'4 7.2
2018-Jun-14 19:30N 39°01' W 029°41'3 6.5
2018-Jun-14 19:00N 38°58' W 029°43'3 6.5
2018-Jun-14 18:30N 38°58' W 029°47'2 4.8
2018-Jun-14 18:00N 38°59' W 029°50'0 0.3
2018-Jun-14 17:30N 38°59' W 029°50'0 0.0
2018-Jun-14 17:00N 38°59' W 029°50'0 0.1
2018-Jun-14 16:30N 38°59' W 029°50'0 0.0
2018-Jun-14 16:00N 38°59' W 029°50'0 0.0
2018-Jun-14 15:30N 38°59' W 029°50'0 0.0
2018-Jun-14 15:00N 38°59' W 029°50'0 0.1
2018-Jun-14 14:30N 38°59' W 029°50'0 0.0
2018-Jun-14 14:00N 38°59' W 029°50'0 0.0
2018-Jun-14 13:30N 38°59' W 029°50'0 0.0
2018-Jun-14 13:00N 38°59' W 029°50'0 0.0
2018-Jun-14 12:30N 38°59' W 029°50'0 0.0
2018-Jun-14 12:00N 38°59' W 029°50'0 0.1
2018-Jun-14 11:30N 38°59' W 029°50'0 0.0
2018-Jun-14 11:00N 38°59' W 029°50'0 0.1
2018-Jun-14 10:30N 38°59' W 029°50'0 1.0
2018-Jun-14 10:00N 38°59' W 029°49'4 7.1
2018-Jun-14 09:30N 38°57' W 029°46'4 7.5
2018-Jun-14 09:00N 38°54' W 029°42'4 7.9
2018-Jun-14 08:30N 38°52' W 029°39'4 7.9
2018-Jun-14 08:00N 38°49' W 029°35'4 7.7
2018-Jun-14 07:30N 38°46' W 029°31'4 7.4
2018-Jun-14 07:01N 38°45' W 029°26'4 7.2
2018-Jun-14 06:30N 38°43' W 029°23'3 6.6
2018-Jun-14 06:00N 38°42' W 029°19'2 5.0
2018-Jun-14 05:30N 38°41' W 029°16'4 7.1
2018-Jun-14 05:00N 38°39' W 029°12'4 7.2
2018-Jun-14 04:30N 38°38' W 029°08'3 7.0
2018-Jun-14 04:01N 38°36' W 029°04'3 6.7
2018-Jun-14 03:30N 38°34' W 029°00'4 7.1
2018-Jun-14 03:00N 38°33' W 028°56'3 7.0
2018-Jun-14 02:31N 38°31' W 028°52'4 7.1
2018-Jun-14 02:00N 38°29' W 028°48'4 7.0
2018-Jun-14 01:30N 38°30' W 028°44'4 7.2
2018-Jun-14 01:00N 38°30' W 028°39'3 5.2
2018-Jun-14 00:30N 38°31' W 028°36'1 2.2
2018-Jun-14 00:00N 38°32' W 028°37'0 0.0
2018-Jun-13 23:30N 38°32' W 028°37'0 0.0
2018-Jun-13 23:00N 38°32' W 028°37'0 0.0
2018-Jun-13 22:31N 38°32' W 028°37'0 0.0
2018-Jun-13 22:00N 38°32' W 028°37'0 0.0
2018-Jun-13 21:30N 38°32' W 028°37'0 0.0
2018-Jun-13 21:01N 38°32' W 028°37'0 0.0
2018-Jun-13 20:30N 38°32' W 028°37'0 0.0
2018-Jun-13 20:00N 38°32' W 028°37'0 0.0
2018-Jun-13 19:31N 38°32' W 028°37'0 0.0
2018-Jun-13 19:00N 38°32' W 028°37'0 0.0
2018-Jun-13 18:30N 38°32' W 028°37'0 0.0
2018-Jun-13 18:00N 38°32' W 028°37'0 0.0
2018-Jun-13 17:30N 38°32' W 028°37'0 0.0
2018-Jun-13 17:00N 38°32' W 028°37'0 0.0
2018-Jun-13 16:31N 38°32' W 028°37'0 0.0
2018-Jun-13 16:00N 38°32' W 028°37'0 0.0
2018-Jun-13 15:30N 38°32' W 028°37'0 0.0
2018-Jun-13 15:01N 38°32' W 028°37'0 0.0
2018-Jun-13 14:30N 38°32' W 028°37'0 0.0
2018-Jun-13 14:00N 38°32' W 028°37'0 0.0
2018-Jun-13 13:31N 38°32' W 028°37'0 0.0
2018-Jun-13 13:00N 38°32' W 028°37'0 0.0
2018-Jun-13 12:30N 38°32' W 028°37'0 0.0
2018-Jun-13 12:01N 38°32' W 028°37'0 0.0
2018-Jun-13 11:30N 38°32' W 028°37'0 0.0
2018-Jun-13 11:00N 38°32' W 028°37'0 0.0
2018-Jun-13 10:30N 38°32' W 028°37'0 0.0
2018-Jun-13 10:00N 38°32' W 028°37'0 0.0
2018-Jun-13 09:30N 38°32' W 028°37'0 0.0
2018-Jun-13 09:00N 38°32' W 028°37'0 0.0
2018-Jun-13 08:27N 38°32' W 028°37'0 0.0
2018-Jun-13 08:00N 38°32' W 028°37'0 0.0
2018-Jun-13 07:30N 38°32' W 028°37'0 0.0
2018-Jun-13 07:00N 38°32' W 028°37'0 0.0
2018-Jun-13 06:30N 38°32' W 028°37'0 0.0
2018-Jun-13 06:00N 38°32' W 028°37'0 0.0
2018-Jun-13 05:30N 38°32' W 028°37'0 0.0
2018-Jun-13 05:00N 38°32' W 028°37'0 0.0
2018-Jun-13 04:27N 38°32' W 028°37'0 0.0
2018-Jun-13 04:00N 38°32' W 028°37'0 0.0
2018-Jun-13 03:30N 38°32' W 028°37'0 0.0
2018-Jun-13 02:57N 38°32' W 028°37'0 0.0
2018-Jun-13 02:30N 38°32' W 028°37'0 0.0
2018-Jun-13 02:00N 38°32' W 028°37'0 0.0
2018-Jun-13 01:27N 38°32' W 028°37'0 0.0
2018-Jun-13 01:00N 38°32' W 028°37'0 0.0
2018-Jun-13 00:30N 38°32' W 028°37'0 0.0
2018-Jun-13 00:00N 38°32' W 028°37'0 0.0
2018-Jun-12 23:30N 38°32' W 028°37'0 0.0
2018-Jun-12 22:54N 38°32' W 028°37'0 0.0
2018-Jun-12 22:30N 38°32' W 028°37'0 0.0
2018-Jun-12 22:00N 38°32' W 028°37'0 0.0
2018-Jun-12 21:30N 38°32' W 028°37'0 0.0
2018-Jun-12 21:00N 38°32' W 028°37'0 0.0
2018-Jun-12 20:30N 38°32' W 028°37'0 0.0
2018-Jun-12 20:00N 38°32' W 028°37'0 0.0
2018-Jun-12 19:30N 38°32' W 028°37'0 0.0
2018-Jun-12 19:00N 38°32' W 028°37'  
Track history (hours):
 
Tides and Currents Weather Stations Pressure Air Temp Water Temp Dewpoint Dewpoint Depression Visibility Wind Speed Wind Dir Waves Ship Positions

Oceanographic research ship Almirante Gago Coutinho (Portugal)

Detailed information on ship capabilities available from University of Delaware's Ocean Information Center.

Last reported at 2018-Jun-22 18:30 UTC. Time now 2018-Jun-22 18:45 UTC.
Position N 38°60' W 029°55'.

Length 17 m; draft 5.9 m.

Type: Military. MMSI: 263145000.

Date/timePositionNaut miles runAvg speedWind from/ knotsBaromVisibWave heightAir tempDewpointWater temp
2018-Jun-22 18:30N 38°60' W 029°55'0 0.0
2018-Jun-22 18:00N 38°60' W 029°55'0 0.0
2018-Jun-22 17:30N 38°60' W 029°55'0 0.2
2018-Jun-22 17:00N 39°00' W 029°55'0 0.1
2018-Jun-22 16:30N 39°00' W 029°55'0 0.1
2018-Jun-22 16:00N 39°00' W 029°55'0 0.2
2018-Jun-22 15:31N 39°00' W 029°55'0 0.2
2018-Jun-22 15:00N 39°00' W 029°56'0 0.0
2018-Jun-22 14:30N 39°00' W 029°56'0 0.1
2018-Jun-22 14:01N 39°00' W 029°56'0 0.1
2018-Jun-22 13:30N 39°00' W 029°56'0 0.2
2018-Jun-22 13:00N 39°00' W 029°56'0 0.1
2018-Jun-22 12:31N 39°00' W 029°56'0 0.1
2018-Jun-22 12:00N 39°00' W 029°56'0 0.0
2018-Jun-22 11:30N 39°00' W 029°56'0 0.0
2018-Jun-22 11:00N 39°00' W 029°56'0 0.0
2018-Jun-22 10:30N 39°00' W 029°56'0 0.4
2018-Jun-22 10:00N 39°01' W 029°56'3 6.2
2018-Jun-22 09:30N 38°59' W 029°53'0 0.9
2018-Jun-22 09:00N 38°58' W 029°53'0 0.6
2018-Jun-22 08:30N 38°58' W 029°52'4 7.5
2018-Jun-22 08:00N 38°57' W 029°48'4 7.9
2018-Jun-22 07:30N 38°55' W 029°43'4 7.8
2018-Jun-22 07:00N 38°53' W 029°39'4 7.5
2018-Jun-22 06:30N 38°52' W 029°34'4 7.3
2018-Jun-22 06:00N 38°51' W 029°30'4 7.4
2018-Jun-22 05:30N 38°49' W 029°25'2 4.9
2018-Jun-22 05:00N 38°51' W 029°23'4 7.4
2018-Jun-22 04:30N 38°54' W 029°26'4 7.4
2018-Jun-22 04:00N 38°56' W 029°30'4 7.3
2018-Jun-22 03:30N 38°58' W 029°34'2 4.5
2018-Jun-22 03:00N 38°56' W 029°35'4 7.1
2018-Jun-22 02:31N 38°54' W 029°31'4 7.0
2018-Jun-22 02:00N 38°51' W 029°28'3 6.7
2018-Jun-22 01:30N 38°48' W 029°25'3 6.7
2018-Jun-22 01:01N 38°49' W 029°29'4 7.1
2018-Jun-22 00:30N 38°51' W 029°33'3 6.9
2018-Jun-22 00:00N 38°54' W 029°36'3 6.6
2018-Jun-21 23:30N 38°55' W 029°40'4 7.0
2018-Jun-21 23:00N 38°51' W 029°40'3 6.8
2018-Jun-21 22:30N 38°48' W 029°40'3 5.0
2018-Jun-21 22:00N 38°49' W 029°43'3 6.7
2018-Jun-21 21:30N 38°52' W 029°43'4 7.1
2018-Jun-21 21:00N 38°55' W 029°45'3 7.0
2018-Jun-21 20:30N 38°58' W 029°48'2 4.0
2018-Jun-21 20:00N 38°59' W 029°50'0 0.2
2018-Jun-21 19:30N 38°59' W 029°50'0 0.0
2018-Jun-21 19:00N 38°59' W 029°50'0 0.0
2018-Jun-21 18:30N 38°59' W 029°50'0 0.0
2018-Jun-21 18:00N 38°59' W 029°50'0 0.0
2018-Jun-21 17:30N 38°59' W 029°50'0 0.0
2018-Jun-21 17:00N 38°59' W 029°50'0 0.0
2018-Jun-21 16:30N 38°59' W 029°50'0 0.1
2018-Jun-21 16:00N 38°59' W 029°50'1 1.8
2018-Jun-21 15:31N 38°59' W 029°51'0 0.4
2018-Jun-21 15:00N 38°59' W 029°51'0 0.0
2018-Jun-21 14:30N 38°59' W 029°51'0 0.2
2018-Jun-21 14:00N 38°59' W 029°51'0 0.1
2018-Jun-21 13:30N 38°59' W 029°51'0 0.1
2018-Jun-21 13:00N 38°59' W 029°51'0 0.1
2018-Jun-21 12:30N 38°59' W 029°51'0 0.2
2018-Jun-21 12:00N 38°58' W 029°51'0 0.0
2018-Jun-21 11:30N 38°58' W 029°51'0 0.2
2018-Jun-21 11:00N 38°58' W 029°51'0 0.1
2018-Jun-21 10:30N 38°58' W 029°51'0 0.1
2018-Jun-21 10:00N 38°58' W 029°51'0 0.1
2018-Jun-21 09:30N 38°58' W 029°51'0 0.0
2018-Jun-21 09:00N 38°58' W 029°51'0 0.1
2018-Jun-21 08:30N 38°58' W 029°51'0 0.4
2018-Jun-21 08:00N 38°58' W 029°51'0 0.0
2018-Jun-21 07:30N 38°58' W 029°51'0 0.9
2018-Jun-21 07:00N 38°58' W 029°51'3 6.6
2018-Jun-21 06:30N 39°00' W 029°47'3 6.9
2018-Jun-21 06:00N 39°03' W 029°44'3 6.7
2018-Jun-21 05:30N 39°05' W 029°41'4 7.1
2018-Jun-21 05:00N 39°08' W 029°38'4 7.0
2018-Jun-21 04:30N 39°10' W 029°35'3 6.8
2018-Jun-21 04:00N 39°13' W 029°33'4 7.1
2018-Jun-21 03:30N 39°16' W 029°31'4 7.0
2018-Jun-21 03:00N 39°20' W 029°30'4 7.1
2018-Jun-21 02:30N 39°23' W 029°28'3 7.0
2018-Jun-21 02:00N 39°26' W 029°25'3 7.0
2018-Jun-21 01:30N 39°29' W 029°24'3 5.8
2018-Jun-21 01:00N 39°32' W 029°22'4 7.1
2018-Jun-21 00:30N 39°30' W 029°27'3 6.9
2018-Jun-21 00:00N 39°29' W 029°31'3 6.9
2018-Jun-20 23:30N 39°28' W 029°35'3 6.9
2018-Jun-20 23:00N 39°26' W 029°39'3 6.9
2018-Jun-20 22:30N 39°25' W 029°43'4 7.1
2018-Jun-20 22:01N 39°23' W 029°47'3 6.7
2018-Jun-20 21:30N 39°20' W 029°49'3 6.9
2018-Jun-20 21:00N 39°17' W 029°50'4 7.0
2018-Jun-20 20:30N 39°13' W 029°51'3 5.3
2018-Jun-20 20:00N 39°11' W 029°52'3 6.9
2018-Jun-20 19:30N 39°07' W 029°52'3 6.7
2018-Jun-20 19:00N 39°04' W 029°52'3 6.5
2018-Jun-20 18:30N 39°01' W 029°51'2 4.8
2018-Jun-20 18:00N 38°58' W 029°51'0 0.0
2018-Jun-20 17:30N 38°58' W 029°51'0 0.0
2018-Jun-20 17:01N 38°58' W 029°51'1 1.6
2018-Jun-20 16:30N 38°59' W 029°50'0 0.8
2018-Jun-20 16:01N 38°59' W 029°50'0 0.4
2018-Jun-20 15:30N 38°59' W 029°50'1 2.7
2018-Jun-20 15:00N 38°58' W 029°50'3 5.0
2018-Jun-20 14:30N 38°56' W 029°52'3 5.6
2018-Jun-20 14:00N 38°59' W 029°52'1 2.6
2018-Jun-20 13:30N 38°59' W 029°50'0 0.0
2018-Jun-20 13:00N 38°59' W 029°50'0 0.0
2018-Jun-20 12:30N 38°59' W 029°50'0 0.0
2018-Jun-20 12:00N 38°59' W 029°50'0 0.0
2018-Jun-20 11:31N 38°59' W 029°50'0 0.0
2018-Jun-20 11:00N 38°59' W 029°50'0 0.0
2018-Jun-20 10:30N 38°59' W 029°50'1 1.7
2018-Jun-20 10:01N 38°59' W 029°49'4 7.2
2018-Jun-20 09:30N 39°00' W 029°53'4 7.4
2018-Jun-20 09:00N 39°02' W 029°58'3 7.0
2018-Jun-20 08:31N 39°04' W 030°01'3 6.9
2018-Jun-20 08:00N 39°06' W 030°05'4 7.4
2018-Jun-20 07:30N 39°07' W 030°10'4 7.0
2018-Jun-20 07:00N 39°08' W 030°14'3 6.6
2018-Jun-20 06:30N 39°06' W 030°11'4 7.0
2018-Jun-20 06:00N 39°03' W 030°08'2 4.4
2018-Jun-20 05:30N 39°04' W 030°05'3 6.8
2018-Jun-20 05:00N 39°07' W 030°04'3 6.9
2018-Jun-20 04:30N 39°09' W 030°08'4 7.1
2018-Jun-20 04:00N 39°10' W 030°12'4 7.3
2018-Jun-20 03:30N 39°11' W 030°16'2 4.0
2018-Jun-20 03:00N 39°12' W 030°19'3 6.6
2018-Jun-20 02:30N 39°09' W 030°21'1 2.0
2018-Jun-20 01:57N 39°08' W 030°20'3 7.2
2018-Jun-20 01:30N 39°07' W 030°16'4 7.4
2018-Jun-20 01:00N 39°06' W 030°12'3 6.5
2018-Jun-20 00:30N 39°04' W 030°08'3 6.5
2018-Jun-20 00:00N 39°02' W 030°12'4 7.4
2018-Jun-19 23:30N 38°58' W 030°13'4 7.5
2018-Jun-19 23:00N 38°54' W 030°13'4 7.1
2018-Jun-19 22:30N 38°51' W 030°14'3 6.8
2018-Jun-19 22:00N 38°47' W 030°15'3 6.4
2018-Jun-19 21:30N 38°47' W 030°11'3 6.1
2018-Jun-19 21:00N 38°46' W 030°07'3 5.9
2018-Jun-19 20:30N 38°45' W 030°04'3 6.1
2018-Jun-19 20:00N 38°44' W 030°00'1 2.9
2018-Jun-19 19:30N 38°43' W 029°58'0 0.7
2018-Jun-19 19:00N 38°43' W 029°58'0 0.1
2018-Jun-19 18:30N 38°43' W 029°58'0 0.1
2018-Jun-19 18:00N 38°43' W 029°58'0 0.2
2018-Jun-19 17:30N 38°43' W 029°58'0 0.2
2018-Jun-19 17:00N 38°43' W 029°58'0 0.2
2018-Jun-19 16:30N 38°43' W 029°58'0 0.2
2018-Jun-19 16:00N 38°43' W 029°57'0 0.1
2018-Jun-19 15:30N 38°43' W 029°57'0 0.1
2018-Jun-19 15:00N 38°43' W 029°57'0 0.1
2018-Jun-19 14:30N 38°43' W 029°57'0 0.0
2018-Jun-19 14:00N 38°43' W 029°57'0 0.0
2018-Jun-19 13:30N 38°43' W 029°57'0 0.0
2018-Jun-19 13:00N 38°43' W 029°57'0 0.0
2018-Jun-19 12:30N 38°43' W 029°57'0 0.0
2018-Jun-19 12:00N 38°43' W 029°57'0 0.0
2018-Jun-19 11:30N 38°43' W 029°57'0 0.0
2018-Jun-19 11:00N 38°43' W 029°57'0 0.0
2018-Jun-19 10:30N 38°43' W 029°57'1 1.3
2018-Jun-19 10:00N 38°44' W 029°57'3 6.9
2018-Jun-19 09:30N 38°44' W 030°01'3 6.6
2018-Jun-19 09:00N 38°44' W 030°05'3 6.5
2018-Jun-19 08:30N 38°44' W 030°10'3 6.6
2018-Jun-19 08:00N 38°44' W 030°14'3 6.9
2018-Jun-19 07:30N 38°43' W 030°18'3 7.0
2018-Jun-19 07:00N 38°43' W 030°23'3 6.5
2018-Jun-19 06:30N 38°44' W 030°27'3 6.8
2018-Jun-19 06:00N 38°46' W 030°31'4 7.1
2018-Jun-19 05:28N 38°47' W 030°35'3 7.1
2018-Jun-19 05:00N 38°48' W 030°39'4 7.0
2018-Jun-19 04:27N 38°49' W 030°44'3 4.0
2018-Jun-19 03:36N 38°49' W 030°40'2 6.9
2018-Jun-19 03:17N 38°49' W 030°37'5 6.6
2018-Jun-19 02:35N 38°48' W 030°31'3 6.4
2018-Jun-19 02:08N 38°47' W 030°27'1 6.7
2018-Jun-19 02:00N 38°47' W 030°26'2 4.4
2018-Jun-19 01:30N 38°46' W 030°24'4 7.1
2018-Jun-19 01:00N 38°46' W 030°19'2 5.0
2018-Jun-19 00:30N 38°45' W 030°16'4 7.1
2018-Jun-19 00:00N 38°45' W 030°12'4 7.0
2018-Jun-18 23:30N 38°45' W 030°07'3 6.7
2018-Jun-18 23:00N 38°44' W 030°03'0 0.1
2018-Jun-18 22:30N 38°44' W 030°03'0 0.1
2018-Jun-18 22:00N 38°44' W 030°03'0 0.1
2018-Jun-18 21:30N 38°44' W 030°03'0 0.2
2018-Jun-18 21:00N 38°44' W 030°03'0 0.1
2018-Jun-18 20:30N 38°45' W 030°03'0 0.2
2018-Jun-18 20:00N 38°45' W 030°03'0 0.1
2018-Jun-18 19:31N 38°45' W 030°03'0 0.2
2018-Jun-18 19:00N 38°45' W 030°03'0 0.0
2018-Jun-18 18:30N 38°45' W 030°03'0 0.0
2018-Jun-18 18:01N 38°45' W 030°03'0 0.1
2018-Jun-18 17:30N 38°45' W 030°03'0 0.0
2018-Jun-18 17:00N 38°45' W 030°03'0 0.0
2018-Jun-18 16:30N 38°45' W 030°03'0 0.0
2018-Jun-18 16:00N 38°45' W 030°03'0 0.0
2018-Jun-18 15:30N 38°45' W 030°03'0 0.0
2018-Jun-18 15:00N 38°45' W 030°03'0 0.0
2018-Jun-18 14:30N 38°45' W 030°03'0 0.0
2018-Jun-18 14:00N 38°45' W 030°03'0 0.0
2018-Jun-18 13:30N 38°45' W 030°03'0 0.6
2018-Jun-18 13:00N 38°45' W 030°02'3 5.7
2018-Jun-18 12:30N 38°43' W 030°00'1 2.0
2018-Jun-18 12:00N 38°43' W 030°00'2 3.2
2018-Jun-18 11:30N 38°45' W 030°00'1 2.6
2018-Jun-18 11:01N 38°45' W 030°02'1 1.4
2018-Jun-18 10:30N 38°45' W 030°03'0 0.1
2018-Jun-18 10:00N 38°45' W 030°03'0 0.0
2018-Jun-18 09:31N 38°45' W 030°03'0 0.0
2018-Jun-18 09:00N 38°45' W 030°03'1 1.4
2018-Jun-18 08:30N 38°45' W 030°02'4 7.3
2018-Jun-18 08:01N 38°42' W 030°05'4 8.0
2018-Jun-18 07:30N 38°39' W 030°08'4 7.4
2018-Jun-18 07:00N 38°36' W 030°11'4 7.5
2018-Jun-18 06:31N 38°34' W 030°14'4 7.2
2018-Jun-18 06:00N 38°32' W 030°18'4 7.3
2018-Jun-18 05:30N 38°30' W 030°22'4 7.2
2018-Jun-18 05:01N 38°28' W 030°25'4 7.4
2018-Jun-18 04:30N 38°25' W 030°29'4 8.1
2018-Jun-18 04:00N 38°23' W 030°33'4 8.2
2018-Jun-18 03:30N 38°20' W 030°37'4 7.7
2018-Jun-18 03:00N 38°18' W 030°42'3 6.5
2018-Jun-18 02:30N 38°15' W 030°43'2 3.8
2018-Jun-18 02:00N 38°15' W 030°45'4 6.4
2018-Jun-18 01:27N 38°18' W 030°43'3 6.5
2018-Jun-18 00:59N 38°20' W 030°40'1 3.1
2018-Jun-18 00:30N 38°21' W 030°40'3 5.8
2018-Jun-17 23:56N 38°19' W 030°43'3 7.5
2018-Jun-17 23:30N 38°17' W 030°46'3 4.7
2018-Jun-17 22:50N 38°20' W 030°44'2 6.9
2018-Jun-17 22:28N 38°21' W 030°42'4 7.8
2018-Jun-17 21:53N 38°24' W 030°37'3 7.8
2018-Jun-17 21:30N 38°26' W 030°34'4 7.9
2018-Jun-17 21:01N 38°27' W 030°30'4 8.1
2018-Jun-17 20:30N 38°30' W 030°26'4 7.8
2018-Jun-17 20:00N 38°32' W 030°22'4 7.6
2018-Jun-17 19:31N 38°35' W 030°18'4 7.4
2018-Jun-17 19:00N 38°37' W 030°14'4 7.3
2018-Jun-17 18:30N 38°39' W 030°11'3 7.0
2018-Jun-17 18:01N 38°42' W 030°07'3 6.7
2018-Jun-17 17:31N 38°44' W 030°04'2 4.3
2018-Jun-17 17:00N 38°45' W 030°02'0 0.0
2018-Jun-17 16:30N 38°45' W 030°02'0 0.4
2018-Jun-17 16:00N 38°45' W 030°02'0 0.5
2018-Jun-17 15:31N 38°45' W 030°02'0 0.5
2018-Jun-17 15:00N 38°45' W 030°03'0 0.1
2018-Jun-17 14:30N 38°45' W 030°03'0 0.1
2018-Jun-17 14:01N 38°45' W 030°03'0 0.2
2018-Jun-17 13:30N 38°45' W 030°03'0 0.3
2018-Jun-17 13:00N 38°45' W 030°03'0 0.0
2018-Jun-17 12:30N 38°45' W 030°03'0 0.0
2018-Jun-17 12:00N 38°45' W 030°03'0 0.0
2018-Jun-17 11:30N 38°45' W 030°03'0 0.0
2018-Jun-17 11:00N 38°45' W 030°03'0 0.0
2018-Jun-17 10:30N 38°45' W 030°03'0 0.0
2018-Jun-17 10:00N 38°45' W 030°03'0 0.1
2018-Jun-17 09:30N 38°45' W 030°03'0 0.0
2018-Jun-17 09:00N 38°45' W 030°03'0 0.0
2018-Jun-17 08:30N 38°45' W 030°03'1 1.0
2018-Jun-17 08:00N 38°45' W 030°02'4 7.1
2018-Jun-17 07:31N 38°49' W 030°04'4 7.8
2018-Jun-17 07:00N 38°52' W 030°06'3 5.5
2018-Jun-17 06:30N 38°54' W 030°08'3 5.8
2018-Jun-17 06:00N 38°56' W 030°11'4 7.6
2018-Jun-17 05:30N 38°60' W 030°10'4 7.1
2018-Jun-17 05:00N 39°03' W 030°10'4 7.2
2018-Jun-17 04:30N 39°04' W 030°14'4 7.6
2018-Jun-17 04:00N 39°05' W 030°19'4 7.2
2018-Jun-17 03:30N 39°06' W 030°23'3 4.7
2018-Jun-17 02:49N 39°09' W 030°22'2 7.6
2018-Jun-17 02:30N 39°11' W 030°21'2 4.1
2018-Jun-17 02:00N 39°13' W 030°22'3 6.9
2018-Jun-17 01:30N 39°14' W 030°26'3 6.5
2018-Jun-17 01:01N 39°15' W 030°30'4 5.0
2018-Jun-17 00:10N 39°16' W 030°25'1 7.4
2018-Jun-16 23:59N 39°15' W 030°23'5 7.2
2018-Jun-16 23:21N 39°14' W 030°17'2 6.8
2018-Jun-16 23:00N 39°13' W 030°15'4 7.6
2018-Jun-16 22:30N 39°11' W 030°10'4 7.8
2018-Jun-16 22:01N 39°10' W 030°05'4 7.0
2018-Jun-16 21:30N 39°08' W 030°02'4 7.4
2018-Jun-16 21:00N 39°06' W 029°58'1 1.2
2018-Jun-16 20:30N 39°06' W 029°57'0 1.0
2018-Jun-16 20:00N 39°05' W 029°57'0 0.9
2018-Jun-16 19:30N 39°05' W 029°57'1 1.2
2018-Jun-16 19:00N 39°04' W 029°56'4 7.8
2018-Jun-16 18:30N 39°02' W 029°52'3 5.8
2018-Jun-16 18:00N 38°59' W 029°50'0 0.9
2018-Jun-16 17:30N 38°59' W 029°50'0 0.0
2018-Jun-16 17:00N 38°59' W 029°50'0 0.1
2018-Jun-16 16:30N 38°59' W 029°50'0 0.1
2018-Jun-16 16:00N 38°59' W 029°50'0 0.0
2018-Jun-16 15:31N 38°59' W 029°50'0 0.0
2018-Jun-16 15:01N 38°59' W 029°50'0 0.0
2018-Jun-16 14:30N 38°59' W 029°50'0 0.0
2018-Jun-16 14:00N 38°59' W 029°50'0 0.1
2018-Jun-16 13:30N 38°59' W 029°50'0 0.1
2018-Jun-16 13:01N 38°59' W 029°50'0 0.1
2018-Jun-16 12:30N 38°59' W 029°50'0 0.1
2018-Jun-16 12:00N 38°59' W 029°50'0 0.0
2018-Jun-16 11:30N 38°59' W 029°50'0 0.1
2018-Jun-16 11:00N 38°59' W 029°50'0 0.0
2018-Jun-16 10:30N 38°59' W 029°50'0 0.0
2018-Jun-16 10:00N 38°59' W 029°50'0 0.0
2018-Jun-16 09:30N 38°59' W 029°50'0 0.1
2018-Jun-16 09:00N 38°59' W 029°50'1 1.7
2018-Jun-16 08:30N 38°60' W 029°49'3 5.8
2018-Jun-16 08:00N 39°02' W 029°49'3 5.9
2018-Jun-16 07:30N 39°05' W 029°49'3 5.6
2018-Jun-16 07:00N 39°08' W 029°49'3 6.1
2018-Jun-16 06:31N 39°11' W 029°49'3 7.0
2018-Jun-16 06:01N 39°15' W 029°48'4 7.0
2018-Jun-16 05:30N 39°18' W 029°47'3 6.3
2018-Jun-16 05:00N 39°21' W 029°45'3 6.9
2018-Jun-16 04:30N 39°23' W 029°41'3 6.8
2018-Jun-16 04:01N 39°24' W 029°37'3 6.5
2018-Jun-16 03:30N 39°26' W 029°33'3 6.4
2018-Jun-16 03:00N 39°27' W 029°29'3 6.8
2018-Jun-16 02:30N 39°28' W 029°25'4 7.1
2018-Jun-16 02:00N 39°30' W 029°21'3 5.2
2018-Jun-16 01:30N 39°32' W 029°21'3 6.5
2018-Jun-16 01:00N 39°34' W 029°24'3 6.5
2018-Jun-16 00:30N 39°37' W 029°25'1 2.8
2018-Jun-16 00:00N 39°37' W 029°23'2 3.1
2018-Jun-15 23:31N 39°36' W 029°22'3 5.9
2018-Jun-15 23:00N 39°39' W 029°21'3 5.8
2018-Jun-15 22:30N 39°37' W 029°18'2 4.8
2018-Jun-15 22:01N 39°35' W 029°20'3 5.2
2018-Jun-15 21:30N 39°38' W 029°21'3 6.6
2018-Jun-15 21:00N 39°34' W 029°21'3 5.8
2018-Jun-15 20:30N 39°34' W 029°17'3 5.9
2018-Jun-15 20:01N 39°36' W 029°15'3 5.8
2018-Jun-15 19:30N 39°34' W 029°15'4 7.1
2018-Jun-15 19:00N 39°30' W 029°17'4 7.5
2018-Jun-15 18:31N 39°28' W 029°20'4 7.6
2018-Jun-15 18:00N 39°24' W 029°23'3 5.7
2018-Jun-15 17:30N 39°22' W 029°24'3 6.4
2018-Jun-15 17:01N 39°19' W 029°26'4 7.1
2018-Jun-15 16:30N 39°16' W 029°28'10 7.3
2018-Jun-15 15:08N 39°07' W 029°33'1 6.9
2018-Jun-15 15:00N 39°06' W 029°34'3 7.0
2018-Jun-15 14:31N 39°02' W 029°35'4 7.5
2018-Jun-15 14:00N 38°59' W 029°37'3 7.0
2018-Jun-15 13:30N 38°56' W 029°39'1 3.0
2018-Jun-15 13:01N 38°57' W 029°38'3 6.6
2018-Jun-15 12:30N 38°59' W 029°35'2 4.5
2018-Jun-15 12:00N 38°60' W 029°38'3 7.0
2018-Jun-15 11:31N 38°57' W 029°40'1 2.9
2018-Jun-15 11:00N 38°57' W 029°42'3 6.7
2018-Jun-15 10:30N 38°58' W 029°46'2 4.9
2018-Jun-15 10:01N 39°01' W 029°47'4 7.0
2018-Jun-15 09:30N 39°02' W 029°43'3 6.9
2018-Jun-15 09:00N 39°04' W 029°39'3 5.9
2018-Jun-15 08:31N 39°06' W 029°37'3 6.9
2018-Jun-15 08:00N 39°10' W 029°36'3 7.0
2018-Jun-15 07:30N 39°13' W 029°36'3 6.9
2018-Jun-15 07:00N 39°17' W 029°36'1 2.3
2018-Jun-15 06:30N 39°18' W 029°37'4 7.3
2018-Jun-15 06:00N 39°14' W 029°38'4 7.2
2018-Jun-15 05:31N 39°10' W 029°38'3 5.7
2018-Jun-15 05:00N 39°08' W 029°39'3 6.6
2018-Jun-15 04:30N 39°11' W 029°40'4 7.1
2018-Jun-15 04:00N 39°15' W 029°39'3 7.0
2018-Jun-15 03:30N 39°18' W 029°39'4 7.1
2018-Jun-15 03:00N 39°21' W 029°41'3 7.0
2018-Jun-15 02:30N 39°18' W 029°42'4 7.1
2018-Jun-15 02:00N 39°14' W 029°42'4 7.2
2018-Jun-15 01:30N 39°11' W 029°43'3 5.5
2018-Jun-15 01:00N 39°08' W 029°44'3 6.1
2018-Jun-15 00:30N 39°10' W 029°47'3 7.0
2018-Jun-15 00:00N 39°14' W 029°46'4 7.3
2018-Jun-14 23:30N 39°17' W 029°45'3 6.9
2018-Jun-14 23:01N 39°20' W 029°44'3 5.9
2018-Jun-14 22:30N 39°17' W 029°43'3 6.8
2018-Jun-14 22:00N 39°14' W 029°44'3 6.6
2018-Jun-14 21:30N 39°11' W 029°44'3 5.8
2018-Jun-14 21:00N 39°08' W 029°45'3 7.0
2018-Jun-14 20:30N 39°07' W 029°41'3 6.0
2018-Jun-14 20:00N 39°04' W 029°40'4 7.2
2018-Jun-14 19:30N 39°01' W 029°41'3 6.5
2018-Jun-14 19:00N 38°58' W 029°43'3 6.5
2018-Jun-14 18:30N 38°58' W 029°47'2 4.8
2018-Jun-14 18:00N 38°59' W 029°50'0 0.3
2018-Jun-14 17:30N 38°59' W 029°50'0 0.0
2018-Jun-14 17:00N 38°59' W 029°50'0 0.1
2018-Jun-14 16:30N 38°59' W 029°50'0 0.0
2018-Jun-14 16:00N 38°59' W 029°50'0 0.0
2018-Jun-14 15:30N 38°59' W 029°50'0 0.0
2018-Jun-14 15:00N 38°59' W 029°50'0 0.1
2018-Jun-14 14:30N 38°59' W 029°50'0 0.0
2018-Jun-14 14:00N 38°59' W 029°50'0 0.0
2018-Jun-14 13:30N 38°59' W 029°50'0 0.0
2018-Jun-14 13:00N 38°59' W 029°50'0 0.0
2018-Jun-14 12:30N 38°59' W 029°50'0 0.0
2018-Jun-14 12:00N 38°59' W 029°50'0 0.1
2018-Jun-14 11:30N 38°59' W 029°50'0 0.0
2018-Jun-14 11:00N 38°59' W 029°50'0 0.1
2018-Jun-14 10:30N 38°59' W 029°50'0 1.0
2018-Jun-14 10:00N 38°59' W 029°49'4 7.1
2018-Jun-14 09:30N 38°57' W 029°46'4 7.5
2018-Jun-14 09:00N 38°54' W 029°42'4 7.9
2018-Jun-14 08:30N 38°52' W 029°39'4 7.9
2018-Jun-14 08:00N 38°49' W 029°35'4 7.7
2018-Jun-14 07:30N 38°46' W 029°31'4 7.4
2018-Jun-14 07:01N 38°45' W 029°26'4 7.2
2018-Jun-14 06:30N 38°43' W 029°23'3 6.6
2018-Jun-14 06:00N 38°42' W 029°19'2 5.0
2018-Jun-14 05:30N 38°41' W 029°16'4 7.1
2018-Jun-14 05:00N 38°39' W 029°12'4 7.2
2018-Jun-14 04:30N 38°38' W 029°08'3 7.0
2018-Jun-14 04:01N 38°36' W 029°04'3 6.7
2018-Jun-14 03:30N 38°34' W 029°00'4 7.1
2018-Jun-14 03:00N 38°33' W 028°56'3 7.0
2018-Jun-14 02:31N 38°31' W 028°52'4 7.1
2018-Jun-14 02:00N 38°29' W 028°48'4 7.0
2018-Jun-14 01:30N 38°30' W 028°44'4 7.2
2018-Jun-14 01:00N 38°30' W 028°39'3 5.2
2018-Jun-14 00:30N 38°31' W 028°36'1 2.2
2018-Jun-14 00:00N 38°32' W 028°37'0 0.0
2018-Jun-13 23:30N 38°32' W 028°37'0 0.0
2018-Jun-13 23:00N 38°32' W 028°37'0 0.0
2018-Jun-13 22:31N 38°32' W 028°37'0 0.0
2018-Jun-13 22:00N 38°32' W 028°37'0 0.0
2018-Jun-13 21:30N 38°32' W 028°37'0 0.0
2018-Jun-13 21:01N 38°32' W 028°37'0 0.0
2018-Jun-13 20:30N 38°32' W 028°37'0 0.0
2018-Jun-13 20:00N 38°32' W 028°37'0 0.0
2018-Jun-13 19:31N 38°32' W 028°37'0 0.0
2018-Jun-13 19:00N 38°32' W 028°37'0 0.0
2018-Jun-13 18:30N 38°32' W 028°37'0 0.0
2018-Jun-13 18:00N 38°32' W 028°37'0 0.0
2018-Jun-13 17:30N 38°32' W 028°37'0 0.0
2018-Jun-13 17:00N 38°32' W 028°37'0 0.0
2018-Jun-13 16:31N 38°32' W 028°37'0 0.0
2018-Jun-13 16:00N 38°32' W 028°37'0 0.0
2018-Jun-13 15:30N 38°32' W 028°37'0 0.0
2018-Jun-13 15:01N 38°32' W 028°37'0 0.0
2018-Jun-13 14:30N 38°32' W 028°37'0 0.0
2018-Jun-13 14:00N 38°32' W 028°37'0 0.0
2018-Jun-13 13:31N 38°32' W 028°37'0 0.0
2018-Jun-13 13:00N 38°32' W 028°37'0 0.0
2018-Jun-13 12:30N 38°32' W 028°37'0 0.0
2018-Jun-13 12:01N 38°32' W 028°37'0 0.0
2018-Jun-13 11:30N 38°32' W 028°37'0 0.0
2018-Jun-13 11:00N 38°32' W 028°37'0 0.0
2018-Jun-13 10:30N 38°32' W 028°37'0 0.0
2018-Jun-13 10:00N 38°32' W 028°37'0 0.0
2018-Jun-13 09:30N 38°32' W 028°37'0 0.0
2018-Jun-13 09:00N 38°32' W 028°37'0 0.0
2018-Jun-13 08:27N 38°32' W 028°37'0 0.0
2018-Jun-13 08:00N 38°32' W 028°37'0 0.0
2018-Jun-13 07:30N 38°32' W 028°37'0 0.0
2018-Jun-13 07:00N 38°32' W 028°37'0 0.0
2018-Jun-13 06:30N 38°32' W 028°37'0 0.0
2018-Jun-13 06:00N 38°32' W 028°37'0 0.0
2018-Jun-13 05:30N 38°32' W 028°37'0 0.0
2018-Jun-13 05:00N 38°32' W 028°37'0 0.0
2018-Jun-13 04:27N 38°32' W 028°37'0 0.0
2018-Jun-13 04:00N 38°32' W 028°37'0 0.0
2018-Jun-13 03:30N 38°32' W 028°37'0 0.0
2018-Jun-13 02:57N 38°32' W 028°37'0 0.0
2018-Jun-13 02:30N 38°32' W 028°37'0 0.0
2018-Jun-13 02:00N 38°32' W 028°37'0 0.0
2018-Jun-13 01:27N 38°32' W 028°37'0 0.0
2018-Jun-13 01:00N 38°32' W 028°37'0 0.0
2018-Jun-13 00:30N 38°32' W 028°37'0 0.0
2018-Jun-13 00:00N 38°32' W 028°37'0 0.0
2018-Jun-12 23:30N 38°32' W 028°37'0 0.0
2018-Jun-12 22:54N 38°32' W 028°37'0 0.0
2018-Jun-12 22:30N 38°32' W 028°37'0 0.0
2018-Jun-12 22:00N 38°32' W 028°37'0 0.0
2018-Jun-12 21:30N 38°32' W 028°37'0 0.0
2018-Jun-12 21:00N 38°32' W 028°37'0 0.0
2018-Jun-12 20:30N 38°32' W 028°37'0 0.0
2018-Jun-12 20:00N 38°32' W 028°37'0 0.0
2018-Jun-12 19:30N 38°32' W 028°37'0 0.0
2018-Jun-12 19:00N 38°32' W 028°37'  

Dump ship's entire track history